sensor_id;sensor_type;location;lat;lon;timestamp;temperature;humidity
68943;DHT22;60852;52.190;4.422;2023-07-13T00:02:08;19.06;69.47
68943;DHT22;60852;52.190;4.422;2023-07-13T00:04:34;19.10;69.59
68943;DHT22;60852;52.190;4.422;2023-07-13T00:07:00;19.00;69.68
68943;DHT22;60852;52.190;4.422;2023-07-13T00:09:26;19.02;69.88
68943;DHT22;60852;52.190;4.422;2023-07-13T00:11:57;19.00;69.94
68943;DHT22;60852;52.190;4.422;2023-07-13T00:14:24;19.05;70.01
68943;DHT22;60852;52.190;4.422;2023-07-13T00:16:50;19.06;70.19
68943;DHT22;60852;52.190;4.422;2023-07-13T00:19:16;19.08;70.43
68943;DHT22;60852;52.190;4.422;2023-07-13T00:21:42;19.02;71.17
68943;DHT22;60852;52.190;4.422;2023-07-13T00:24:11;19.00;71.58
68943;DHT22;60852;52.190;4.422;2023-07-13T00:26:41;19.06;71.63
68943;DHT22;60852;52.190;4.422;2023-07-13T00:29:11;19.06;71.76
68943;DHT22;60852;52.190;4.422;2023-07-13T00:31:37;19.03;71.97
68943;DHT22;60852;52.190;4.422;2023-07-13T00:34:03;19.03;72.20
68943;DHT22;60852;52.190;4.422;2023-07-13T00:36:30;19.09;71.89
68943;DHT22;60852;52.190;4.422;2023-07-13T00:38:56;19.05;71.38
68943;DHT22;60852;52.190;4.422;2023-07-13T00:41:22;19.06;70.57
68943;DHT22;60852;52.190;4.422;2023-07-13T00:43:47;19.08;70.62
68943;DHT22;60852;52.190;4.422;2023-07-13T00:46:24;19.08;70.87
68943;DHT22;60852;52.190;4.422;2023-07-13T00:48:51;19.06;70.93
68943;DHT22;60852;52.190;4.422;2023-07-13T00:51:36;19.00;71.24
68943;DHT22;60852;52.190;4.422;2023-07-13T00:54:07;19.03;71.36
68943;DHT22;60852;52.190;4.422;2023-07-13T00:56:36;19.06;71.20
68943;DHT22;60852;52.190;4.422;2023-07-13T00:59:05;19.08;71.32
68943;DHT22;60852;52.190;4.422;2023-07-13T01:01:32;19.06;71.14
68943;DHT22;60852;52.190;4.422;2023-07-13T01:03:57;18.94;70.85
68943;DHT22;60852;52.190;4.422;2023-07-13T01:06:23;18.96;70.39
68943;DHT22;60852;52.190;4.422;2023-07-13T01:08:48;18.95;70.08
68943;DHT22;60852;52.190;4.422;2023-07-13T01:11:19;18.98;69.86
68943;DHT22;60852;52.190;4.422;2023-07-13T01:13:46;18.95;69.58
68943;DHT22;60852;52.190;4.422;2023-07-13T01:16:18;19.02;69.45
68943;DHT22;60852;52.190;4.422;2023-07-13T01:18:44;18.94;69.08
68943;DHT22;60852;52.190;4.422;2023-07-13T01:21:09;18.87;69.36
68943;DHT22;60852;52.190;4.422;2023-07-13T01:23:35;18.84;69.87
68943;DHT22;60852;52.190;4.422;2023-07-13T01:26:01;18.73;70.46
68943;DHT22;60852;52.190;4.422;2023-07-13T01:28:28;18.69;70.88
68943;DHT22;60852;52.190;4.422;2023-07-13T01:30:55;18.71;71.05
68943;DHT22;60852;52.190;4.422;2023-07-13T01:33:21;18.67;71.32
68943;DHT22;60852;52.190;4.422;2023-07-13T01:35:47;18.64;71.47
68943;DHT22;60852;52.190;4.422;2023-07-13T01:38:20;18.57;71.71
68943;DHT22;60852;52.190;4.422;2023-07-13T01:40:46;18.52;72.08
68943;DHT22;60852;52.190;4.422;2023-07-13T01:43:12;18.51;72.56
68943;DHT22;60852;52.190;4.422;2023-07-13T01:45:38;18.51;72.67
68943;DHT22;60852;52.190;4.422;2023-07-13T01:48:04;18.45;72.73
68943;DHT22;60852;52.190;4.422;2023-07-13T01:50:32;18.47;73.00
68943;DHT22;60852;52.190;4.422;2023-07-13T01:52:58;18.51;72.95
68943;DHT22;60852;52.190;4.422;2023-07-13T01:55:24;18.48;73.23
68943;DHT22;60852;52.190;4.422;2023-07-13T01:57:49;18.47;73.44
68943;DHT22;60852;52.190;4.422;2023-07-13T02:00:15;18.44;73.53
68943;DHT22;60852;52.190;4.422;2023-07-13T02:02:41;18.47;73.63
68943;DHT22;60852;52.190;4.422;2023-07-13T02:05:07;18.51;73.70
68943;DHT22;60852;52.190;4.422;2023-07-13T02:07:32;18.45;73.95
68943;DHT22;60852;52.190;4.422;2023-07-13T02:09:58;18.38;74.24
68943;DHT22;60852;52.190;4.422;2023-07-13T02:12:24;18.38;74.35
68943;DHT22;60852;52.190;4.422;2023-07-13T02:14:49;18.45;74.29
68943;DHT22;60852;52.190;4.422;2023-07-13T02:17:15;18.45;74.36
68943;DHT22;60852;52.190;4.422;2023-07-13T02:19:40;18.45;74.63
68943;DHT22;60852;52.190;4.422;2023-07-13T02:22:06;18.44;74.86
68943;DHT22;60852;52.190;4.422;2023-07-13T02:24:32;18.47;75.10
68943;DHT22;60852;52.190;4.422;2023-07-13T02:26:57;18.43;75.34
68943;DHT22;60852;52.190;4.422;2023-07-13T02:29:23;18.38;75.52
68943;DHT22;60852;52.190;4.422;2023-07-13T02:31:48;18.36;75.79
68943;DHT22;60852;52.190;4.422;2023-07-13T02:34:14;18.44;75.70
68943;DHT22;60852;52.190;4.422;2023-07-13T02:36:39;18.45;75.63
68943;DHT22;60852;52.190;4.422;2023-07-13T02:39:06;18.51;75.48
68943;DHT22;60852;52.190;4.422;2023-07-13T02:41:31;18.47;75.67
68943;DHT22;60852;52.190;4.422;2023-07-13T02:43:58;18.58;75.69
68943;DHT22;60852;52.190;4.422;2023-07-13T02:46:33;18.60;75.76
68943;DHT22;60852;52.190;4.422;2023-07-13T02:48:59;18.61;75.78
68943;DHT22;60852;52.190;4.422;2023-07-13T02:51:25;18.62;75.90
68943;DHT22;60852;52.190;4.422;2023-07-13T02:53:51;18.67;75.85
68943;DHT22;60852;52.190;4.422;2023-07-13T02:56:22;18.67;75.87
68943;DHT22;60852;52.190;4.422;2023-07-13T02:58:47;18.71;75.88
68943;DHT22;60852;52.190;4.422;2023-07-13T03:01:13;18.68;76.04
68943;DHT22;60852;52.190;4.422;2023-07-13T03:03:47;18.75;76.14
68943;DHT22;60852;52.190;4.422;2023-07-13T03:06:13;18.75;76.42
68943;DHT22;60852;52.190;4.422;2023-07-13T03:08:39;18.68;76.69
68943;DHT22;60852;52.190;4.422;2023-07-13T03:11:17;18.58;77.26
68943;DHT22;60852;52.190;4.422;2023-07-13T03:13:43;18.55;77.46
68943;DHT22;60852;52.190;4.422;2023-07-13T03:16:10;18.58;77.56
68943;DHT22;60852;52.190;4.422;2023-07-13T03:18:36;18.58;77.68
68943;DHT22;60852;52.190;4.422;2023-07-13T03:21:03;18.52;78.20
68943;DHT22;60852;52.190;4.422;2023-07-13T03:23:29;18.58;78.11
68943;DHT22;60852;52.190;4.422;2023-07-13T03:28:31;18.58;78.28
68943;DHT22;60852;52.190;4.422;2023-07-13T03:31:15;18.50;78.93
68943;DHT22;60852;52.190;4.422;2023-07-13T03:33:41;18.52;78.96
68943;DHT22;60852;52.190;4.422;2023-07-13T03:36:10;18.54;78.95
68943;DHT22;60852;52.190;4.422;2023-07-13T03:38:36;18.54;78.97
68943;DHT22;60852;52.190;4.422;2023-07-13T03:41:01;18.61;78.98
68943;DHT22;60852;52.190;4.422;2023-07-13T03:43:27;18.68;78.76
68943;DHT22;60852;52.190;4.422;2023-07-13T03:45:52;18.78;78.70
68943;DHT22;60852;52.190;4.422;2023-07-13T03:48:18;18.78;78.26
68943;DHT22;60852;52.190;4.422;2023-07-13T03:50:44;18.76;78.55
68943;DHT22;60852;52.190;4.422;2023-07-13T03:53:09;18.76;78.37
68943;DHT22;60852;52.190;4.422;2023-07-13T03:55:35;18.72;78.25
68943;DHT22;60852;52.190;4.422;2023-07-13T04:00:55;18.85;78.12
68943;DHT22;60852;52.190;4.422;2023-07-13T04:03:21;18.91;77.90
68943;DHT22;60852;52.190;4.422;2023-07-13T04:05:46;18.89;77.63
68943;DHT22;60852;52.190;4.422;2023-07-13T04:08:12;18.88;77.60
68943;DHT22;60852;52.190;4.422;2023-07-13T04:10:38;18.94;77.46
68943;DHT22;60852;52.190;4.422;2023-07-13T04:13:04;18.98;77.36
68943;DHT22;60852;52.190;4.422;2023-07-13T04:15:31;18.91;77.25
68943;DHT22;60852;52.190;4.422;2023-07-13T04:17:57;18.92;77.06
68943;DHT22;60852;52.190;4.422;2023-07-13T04:20:24;18.99;76.95
68943;DHT22;60852;52.190;4.422;2023-07-13T04:22:51;19.00;76.67
68943;DHT22;60852;52.190;4.422;2023-07-13T04:25:18;19.02;76.55
68943;DHT22;60852;52.190;4.422;2023-07-13T04:27:44;19.06;75.97
68943;DHT22;60852;52.190;4.422;2023-07-13T04:30:09;19.05;76.04
68943;DHT22;60852;52.190;4.422;2023-07-13T04:32:35;19.12;75.83
68943;DHT22;60852;52.190;4.422;2023-07-13T04:35:00;19.23;75.51
68943;DHT22;60852;52.190;4.422;2023-07-13T04:37:26;19.34;75.32
68943;DHT22;60852;52.190;4.422;2023-07-13T04:39:52;19.33;74.60
68943;DHT22;60852;52.190;4.422;2023-07-13T04:42:18;19.33;74.70
68943;DHT22;60852;52.190;4.422;2023-07-13T04:44:48;19.36;74.22
68943;DHT22;60852;52.190;4.422;2023-07-13T04:47:14;19.31;74.40
68943;DHT22;60852;52.190;4.422;2023-07-13T04:49:39;19.37;74.23
68943;DHT22;60852;52.190;4.422;2023-07-13T04:52:06;19.39;73.80
68943;DHT22;60852;52.190;4.422;2023-07-13T04:54:33;19.40;73.49
68943;DHT22;60852;52.190;4.422;2023-07-13T04:56:59;19.40;73.35
68943;DHT22;60852;52.190;4.422;2023-07-13T04:59:24;19.39;73.25
68943;DHT22;60852;52.190;4.422;2023-07-13T05:01:50;19.51;73.06
68943;DHT22;60852;52.190;4.422;2023-07-13T05:04:16;19.74;72.54
68943;DHT22;60852;52.190;4.422;2023-07-13T05:06:42;19.85;71.38
68943;DHT22;60852;52.190;4.422;2023-07-13T05:09:08;19.98;70.77
68943;DHT22;60852;52.190;4.422;2023-07-13T05:11:34;20.18;70.65
68943;DHT22;60852;52.190;4.422;2023-07-13T05:14:00;20.30;69.82
68943;DHT22;60852;52.190;4.422;2023-07-13T05:16:27;20.60;68.28
68943;DHT22;60852;52.190;4.422;2023-07-13T05:18:53;21.15;66.58
68943;DHT22;60852;52.190;4.422;2023-07-13T05:21:19;20.84;66.29
68943;DHT22;60852;52.190;4.422;2023-07-13T05:23:45;20.81;66.24
68943;DHT22;60852;52.190;4.422;2023-07-13T05:26:11;20.66;66.17
68943;DHT22;60852;52.190;4.422;2023-07-13T05:28:37;20.55;67.02
68943;DHT22;60852;52.190;4.422;2023-07-13T05:31:04;20.50;68.03
68943;DHT22;60852;52.190;4.422;2023-07-13T05:33:30;20.33;68.63
68943;DHT22;60852;52.190;4.422;2023-07-13T05:35:55;20.97;67.44
68943;DHT22;60852;52.190;4.422;2023-07-13T05:38:21;21.39;65.13
68943;DHT22;60852;52.190;4.422;2023-07-13T05:40:47;21.24;65.01
68943;DHT22;60852;52.190;4.422;2023-07-13T05:43:14;21.01;65.72
68943;DHT22;60852;52.190;4.422;2023-07-13T05:45:40;20.87;66.04
68943;DHT22;60852;52.190;4.422;2023-07-13T05:48:06;20.63;66.64
68943;DHT22;60852;52.190;4.422;2023-07-13T05:50:31;20.47;67.48
68943;DHT22;60852;52.190;4.422;2023-07-13T05:52:57;20.32;67.41
68943;DHT22;60852;52.190;4.422;2023-07-13T05:55:23;20.24;67.80
68943;DHT22;60852;52.190;4.422;2023-07-13T05:57:49;20.17;67.80
68943;DHT22;60852;52.190;4.422;2023-07-13T06:00:15;20.11;67.90
68943;DHT22;60852;52.190;4.422;2023-07-13T06:02:41;20.07;67.99
68943;DHT22;60852;52.190;4.422;2023-07-13T06:05:06;20.04;68.46
68943;DHT22;60852;52.190;4.422;2023-07-13T06:07:32;20.70;67.61
68943;DHT22;60852;52.190;4.422;2023-07-13T06:09:58;22.25;62.78
68943;DHT22;60852;52.190;4.422;2023-07-13T06:12:25;23.40;59.02
68943;DHT22;60852;52.190;4.422;2023-07-13T06:14:50;24.47;56.08
68943;DHT22;60852;52.190;4.422;2023-07-13T06:17:16;25.27;53.18
68943;DHT22;60852;52.190;4.422;2023-07-13T06:19:42;25.54;52.72
68943;DHT22;60852;52.190;4.422;2023-07-13T06:22:07;25.18;52.56
68943;DHT22;60852;52.190;4.422;2023-07-13T06:24:33;25.30;52.77
68943;DHT22;60852;52.190;4.422;2023-07-13T06:26:58;25.62;52.12
68943;DHT22;60852;52.190;4.422;2023-07-13T06:29:24;25.10;51.28
68943;DHT22;60852;52.190;4.422;2023-07-13T06:31:49;24.24;53.33
68943;DHT22;60852;52.190;4.422;2023-07-13T06:34:15;23.64;56.86
68943;DHT22;60852;52.190;4.422;2023-07-13T06:36:41;23.67;57.64
68943;DHT22;60852;52.190;4.422;2023-07-13T06:39:07;23.59;57.62
68943;DHT22;60852;52.190;4.422;2023-07-13T06:41:33;23.30;57.30
68943;DHT22;60852;52.190;4.422;2023-07-13T06:43:59;23.01;57.00
68943;DHT22;60852;52.190;4.422;2023-07-13T06:46:25;22.74;57.77
68943;DHT22;60852;52.190;4.422;2023-07-13T06:48:50;22.58;58.94
68943;DHT22;60852;52.190;4.422;2023-07-13T06:51:16;22.60;58.92
68943;DHT22;60852;52.190;4.422;2023-07-13T06:53:41;22.44;58.98
68943;DHT22;60852;52.190;4.422;2023-07-13T06:56:09;22.30;59.36
68943;DHT22;60852;52.190;4.422;2023-07-13T06:58:36;22.07;59.95
68943;DHT22;60852;52.190;4.422;2023-07-13T07:01:03;21.85;60.90
68943;DHT22;60852;52.190;4.422;2023-07-13T07:03:28;21.79;61.24
68943;DHT22;60852;52.190;4.422;2023-07-13T07:05:54;21.83;61.54
68943;DHT22;60852;52.190;4.422;2023-07-13T07:08:24;21.63;61.01
68943;DHT22;60852;52.190;4.422;2023-07-13T07:10:50;21.31;61.48
68943;DHT22;60852;52.190;4.422;2023-07-13T07:13:19;21.30;62.28
68943;DHT22;60852;52.190;4.422;2023-07-13T07:15:45;21.37;62.15
68943;DHT22;60852;52.190;4.422;2023-07-13T07:18:11;21.41;63.28
68943;DHT22;60852;52.190;4.422;2023-07-13T07:20:36;21.34;63.03
68943;DHT22;60852;52.190;4.422;2023-07-13T07:23:02;21.45;61.84
68943;DHT22;60852;52.190;4.422;2023-07-13T07:25:27;21.52;61.47
68943;DHT22;60852;52.190;4.422;2023-07-13T07:27:57;21.66;62.04
68943;DHT22;60852;52.190;4.422;2023-07-13T07:30:23;21.52;62.74
68943;DHT22;60852;52.190;4.422;2023-07-13T07:32:48;21.63;61.05
68943;DHT22;60852;52.190;4.422;2023-07-13T07:35:14;21.72;60.33
68943;DHT22;60852;52.190;4.422;2023-07-13T07:37:39;21.81;60.88
68943;DHT22;60852;52.190;4.422;2023-07-13T07:40:06;21.92;61.13
68943;DHT22;60852;52.190;4.422;2023-07-13T07:42:32;22.14;61.35
68943;DHT22;60852;52.190;4.422;2023-07-13T07:44:57;22.24;60.90
68943;DHT22;60852;52.190;4.422;2023-07-13T07:47:23;22.45;60.32
68943;DHT22;60852;52.190;4.422;2023-07-13T07:49:49;22.36;60.99
68943;DHT22;60852;52.190;4.422;2023-07-13T07:52:14;22.24;62.14
68943;DHT22;60852;52.190;4.422;2023-07-13T07:54:40;22.14;62.35
68943;DHT22;60852;52.190;4.422;2023-07-13T07:57:06;21.97;62.74
68943;DHT22;60852;52.190;4.422;2023-07-13T07:59:32;21.76;63.33
68943;DHT22;60852;52.190;4.422;2023-07-13T08:01:57;21.63;64.15
68943;DHT22;60852;52.190;4.422;2023-07-13T08:04:23;21.66;64.28
68943;DHT22;60852;52.190;4.422;2023-07-13T08:06:48;21.58;64.20
68943;DHT22;60852;52.190;4.422;2023-07-13T08:09:14;21.66;63.85
68943;DHT22;60852;52.190;4.422;2023-07-13T08:11:39;21.41;63.31
68943;DHT22;60852;52.190;4.422;2023-07-13T08:14:05;21.34;63.68
68943;DHT22;60852;52.190;4.422;2023-07-13T08:16:31;21.38;64.07
68943;DHT22;60852;52.190;4.422;2023-07-13T08:18:58;21.46;64.02
68943;DHT22;60852;52.190;4.422;2023-07-13T08:21:23;21.37;64.32
68943;DHT22;60852;52.190;4.422;2023-07-13T08:23:49;21.31;64.15
68943;DHT22;60852;52.190;4.422;2023-07-13T08:26:14;21.38;63.43
68943;DHT22;60852;52.190;4.422;2023-07-13T08:28:41;21.39;64.51
68943;DHT22;60852;52.190;4.422;2023-07-13T08:31:07;21.44;64.01
68943;DHT22;60852;52.190;4.422;2023-07-13T08:33:34;21.42;63.62
68943;DHT22;60852;52.190;4.422;2023-07-13T08:36:01;21.44;64.74
68943;DHT22;60852;52.190;4.422;2023-07-13T08:38:26;21.48;64.46
68943;DHT22;60852;52.190;4.422;2023-07-13T08:40:53;21.46;64.34
68943;DHT22;60852;52.190;4.422;2023-07-13T08:43:28;21.52;64.53
68943;DHT22;60852;52.190;4.422;2023-07-13T08:45:58;21.56;64.80
68943;DHT22;60852;52.190;4.422;2023-07-13T08:48:35;21.58;64.95
68943;DHT22;60852;52.190;4.422;2023-07-13T08:53:49;21.41;63.39
68943;DHT22;60852;52.190;4.422;2023-07-13T08:56:35;21.32;63.24
68943;DHT22;60852;52.190;4.422;2023-07-13T08:59:11;21.17;65.17
68943;DHT22;60852;52.190;4.422;2023-07-13T09:01:56;21.27;65.34
68943;DHT22;60852;52.190;4.422;2023-07-13T09:04:37;21.34;63.94
68943;DHT22;60852;52.190;4.422;2023-07-13T09:07:18;21.38;64.75
68943;DHT22;60852;52.190;4.422;2023-07-13T09:14:54;21.59;64.65
68943;DHT22;60852;52.190;4.422;2023-07-13T09:17:27;21.58;64.53
68943;DHT22;60852;52.190;4.422;2023-07-13T09:19:59;21.58;64.39
68943;DHT22;60852;52.190;4.422;2023-07-13T09:22:28;21.61;63.03
68943;DHT22;60852;52.190;4.422;2023-07-13T09:25:06;21.46;62.90
68943;DHT22;60852;52.190;4.422;2023-07-13T09:27:43;21.44;63.33
68943;DHT22;60852;52.190;4.422;2023-07-13T09:32:47;21.54;63.69
68943;DHT22;60852;52.190;4.422;2023-07-13T09:35:18;21.49;63.59
68943;DHT22;60852;52.190;4.422;2023-07-13T09:37:45;21.49;62.87
68943;DHT22;60852;52.190;4.422;2023-07-13T09:40:27;21.56;63.30
68943;DHT22;60852;52.190;4.422;2023-07-13T09:42:54;21.49;62.94
68943;DHT22;60852;52.190;4.422;2023-07-13T09:45:29;21.48;63.37
68943;DHT22;60852;52.190;4.422;2023-07-13T09:48:07;21.49;63.18
68943;DHT22;60852;52.190;4.422;2023-07-13T09:50:35;21.56;63.64
68943;DHT22;60852;52.190;4.422;2023-07-13T09:53:02;21.46;63.44
68943;DHT22;60852;52.190;4.422;2023-07-13T09:55:35;21.34;64.50
68943;DHT22;60852;52.190;4.422;2023-07-13T09:58:20;21.44;64.32
68943;DHT22;60852;52.190;4.422;2023-07-13T10:01:14;21.76;63.21
68943;DHT22;60852;52.190;4.422;2023-07-13T10:03:52;21.79;62.88
68943;DHT22;60852;52.190;4.422;2023-07-13T10:06:21;22.25;61.80
68943;DHT22;60852;52.190;4.422;2023-07-13T10:08:49;22.95;59.64
68943;DHT22;60852;52.190;4.422;2023-07-13T10:13:46;23.87;55.87
68943;DHT22;60852;52.190;4.422;2023-07-13T10:16:15;23.84;54.41
68943;DHT22;60852;52.190;4.422;2023-07-13T10:18:58;23.64;55.22
68943;DHT22;60852;52.190;4.422;2023-07-13T10:21:35;23.63;55.74
68943;DHT22;60852;52.190;4.422;2023-07-13T10:24:15;23.98;55.32
68943;DHT22;60852;52.190;4.422;2023-07-13T10:26:50;24.32;55.07
68943;DHT22;60852;52.190;4.422;2023-07-13T10:29:20;24.58;54.06
68943;DHT22;60852;52.190;4.422;2023-07-13T10:31:47;24.42;53.92
68943;DHT22;60852;52.190;4.422;2023-07-13T10:34:13;24.19;53.99
68943;DHT22;60852;52.190;4.422;2023-07-13T10:36:46;23.98;55.82
68943;DHT22;60852;52.190;4.422;2023-07-13T10:39:20;23.91;55.97
68943;DHT22;60852;52.190;4.422;2023-07-13T10:42:03;24.10;55.15
68943;DHT22;60852;52.190;4.422;2023-07-13T10:44:32;23.87;56.10
68943;DHT22;60852;52.190;4.422;2023-07-13T10:47:04;24.04;56.13
68943;DHT22;60852;52.190;4.422;2023-07-13T10:49:34;23.77;57.02
68943;DHT22;60852;52.190;4.422;2023-07-13T10:52:02;23.63;57.56
68943;DHT22;60852;52.190;4.422;2023-07-13T10:54:34;23.63;58.59
68943;DHT22;60852;52.190;4.422;2023-07-13T10:57:20;23.64;57.30
68943;DHT22;60852;52.190;4.422;2023-07-13T10:59:49;23.64;58.23
68943;DHT22;60852;52.190;4.422;2023-07-13T11:02:34;23.46;57.78
68943;DHT22;60852;52.190;4.422;2023-07-13T11:05:25;23.19;58.44
68943;DHT22;60852;52.190;4.422;2023-07-13T11:07:56;23.30;59.07
68943;DHT22;60852;52.190;4.422;2023-07-13T11:10:59;23.34;57.91
68943;DHT22;60852;52.190;4.422;2023-07-13T11:13:56;23.45;58.29
68943;DHT22;60852;52.190;4.422;2023-07-13T11:21:26;22.98;60.44
68943;DHT22;60852;52.190;4.422;2023-07-13T11:24:01;22.95;60.20
68943;DHT22;60852;52.190;4.422;2023-07-13T11:26:57;23.02;60.26
68943;DHT22;60852;52.190;4.422;2023-07-13T11:32:00;23.13;60.18
68943;DHT22;60852;52.190;4.422;2023-07-13T11:34:30;23.01;60.34
68943;DHT22;60852;52.190;4.422;2023-07-13T11:36:59;23.18;59.64
68943;DHT22;60852;52.190;4.422;2023-07-13T11:39:34;23.33;59.32
68943;DHT22;60852;52.190;4.422;2023-07-13T11:42:05;23.52;59.33
68943;DHT22;60852;52.190;4.422;2023-07-13T11:44:33;23.50;58.96
68943;DHT22;60852;52.190;4.422;2023-07-13T11:47:10;23.53;59.57
68943;DHT22;60852;52.190;4.422;2023-07-13T11:49:44;23.33;59.69
68943;DHT22;60852;52.190;4.422;2023-07-13T11:52:16;23.19;60.13
68943;DHT22;60852;52.190;4.422;2023-07-13T11:54:52;23.03;60.32
68943;DHT22;60852;52.190;4.422;2023-07-13T11:57:30;23.22;61.03
68943;DHT22;60852;52.190;4.422;2023-07-13T12:00:11;23.18;61.05
68943;DHT22;60852;52.190;4.422;2023-07-13T12:02:47;23.20;61.06
68943;DHT22;60852;52.190;4.422;2023-07-13T12:05:17;23.30;61.02
68943;DHT22;60852;52.190;4.422;2023-07-13T12:07:46;23.36;60.08
68943;DHT22;60852;52.190;4.422;2023-07-13T12:10:30;23.33;59.76
68943;DHT22;60852;52.190;4.422;2023-07-13T12:13:00;23.29;59.47
68943;DHT22;60852;52.190;4.422;2023-07-13T12:15:46;23.16;59.33
68943;DHT22;60852;52.190;4.422;2023-07-13T12:18:19;23.05;59.82
68943;DHT22;60852;52.190;4.422;2023-07-13T12:20:46;23.12;60.10
68943;DHT22;60852;52.190;4.422;2023-07-13T12:25:55;22.94;60.17
68943;DHT22;60852;52.190;4.422;2023-07-13T12:28:36;23.29;59.76
68943;DHT22;60852;52.190;4.422;2023-07-13T12:31:08;23.36;58.33
68943;DHT22;60852;52.190;4.422;2023-07-13T12:33:43;23.08;59.09
68943;DHT22;60852;52.190;4.422;2023-07-13T12:36:12;22.96;59.75
68943;DHT22;60852;52.190;4.422;2023-07-13T12:38:38;22.75;59.92
68943;DHT22;60852;52.190;4.422;2023-07-13T12:41:04;22.61;60.90
68943;DHT22;60852;52.190;4.422;2023-07-13T12:43:36;22.78;60.77
68943;DHT22;60852;52.190;4.422;2023-07-13T12:48:43;22.65;60.52
68943;DHT22;60852;52.190;4.422;2023-07-13T12:51:14;22.64;60.64
68943;DHT22;60852;52.190;4.422;2023-07-13T12:53:47;22.61;61.78
68943;DHT22;60852;52.190;4.422;2023-07-13T12:56:23;22.58;61.23
68943;DHT22;60852;52.190;4.422;2023-07-13T12:58:50;22.69;60.56
68943;DHT22;60852;52.190;4.422;2023-07-13T13:01:22;22.64;60.36
68943;DHT22;60852;52.190;4.422;2023-07-13T13:03:51;22.58;60.27
68943;DHT22;60852;52.190;4.422;2023-07-13T13:08:50;22.79;60.34
68943;DHT22;60852;52.190;4.422;2023-07-13T13:11:17;22.81;60.66
68943;DHT22;60852;52.190;4.422;2023-07-13T13:13:43;22.67;60.10
68943;DHT22;60852;52.190;4.422;2023-07-13T13:16:31;22.48;60.63
68943;DHT22;60852;52.190;4.422;2023-07-13T13:19:15;22.50;60.72
68943;DHT22;60852;52.190;4.422;2023-07-13T13:21:43;22.58;60.33
68943;DHT22;60852;52.190;4.422;2023-07-13T13:24:15;22.51;60.71
68943;DHT22;60852;52.190;4.422;2023-07-13T13:26:41;22.50;59.76
68943;DHT22;60852;52.190;4.422;2023-07-13T13:29:19;22.43;60.61
68943;DHT22;60852;52.190;4.422;2023-07-13T13:31:45;22.43;60.94
68943;DHT22;60852;52.190;4.422;2023-07-13T13:34:14;22.57;61.22
68943;DHT22;60852;52.190;4.422;2023-07-13T13:36:41;22.64;60.75
68943;DHT22;60852;52.190;4.422;2023-07-13T13:39:29;22.51;60.31
68943;DHT22;60852;52.190;4.422;2023-07-13T13:41:56;22.61;60.11
68943;DHT22;60852;52.190;4.422;2023-07-13T13:44:22;22.69;60.57
68943;DHT22;60852;52.190;4.422;2023-07-13T13:46:51;22.74;59.91
68943;DHT22;60852;52.190;4.422;2023-07-13T13:49:22;22.78;60.27
68943;DHT22;60852;52.190;4.422;2023-07-13T13:51:49;22.81;61.07
68943;DHT22;60852;52.190;4.422;2023-07-13T13:54:17;22.65;60.75
68943;DHT22;60852;52.190;4.422;2023-07-13T13:56:44;22.54;61.13
68943;DHT22;60852;52.190;4.422;2023-07-13T13:59:11;22.61;60.93
68943;DHT22;60852;52.190;4.422;2023-07-13T14:01:38;22.69;60.76
68943;DHT22;60852;52.190;4.422;2023-07-13T14:04:04;22.84;60.99
68943;DHT22;60852;52.190;4.422;2023-07-13T14:06:32;22.60;60.55
68943;DHT22;60852;52.190;4.422;2023-07-13T14:08:59;22.60;60.63
68943;DHT22;60852;52.190;4.422;2023-07-13T14:11:25;22.58;61.59
68943;DHT22;60852;52.190;4.422;2023-07-13T14:13:55;22.67;61.16
68943;DHT22;60852;52.190;4.422;2023-07-13T14:16:26;22.60;60.36
68943;DHT22;60852;52.190;4.422;2023-07-13T14:18:53;22.68;60.95
68943;DHT22;60852;52.190;4.422;2023-07-13T14:21:22;22.69;60.87
68943;DHT22;60852;52.190;4.422;2023-07-13T14:23:49;22.81;61.38
68943;DHT22;60852;52.190;4.422;2023-07-13T14:26:19;22.92;60.75
68943;DHT22;60852;52.190;4.422;2023-07-13T14:28:47;22.95;59.68
68943;DHT22;60852;52.190;4.422;2023-07-13T14:31:16;23.05;60.48
68943;DHT22;60852;52.190;4.422;2023-07-13T14:33:42;23.23;60.54
68943;DHT22;60852;52.190;4.422;2023-07-13T14:36:33;23.06;60.11
68943;DHT22;60852;52.190;4.422;2023-07-13T14:39:30;22.96;60.60
68943;DHT22;60852;52.190;4.422;2023-07-13T14:41:56;22.85;60.31
68943;DHT22;60852;52.190;4.422;2023-07-13T14:44:25;22.76;60.83
68943;DHT22;60852;52.190;4.422;2023-07-13T14:46:52;22.76;60.52
68943;DHT22;60852;52.190;4.422;2023-07-13T14:49:37;22.75;60.92
68943;DHT22;60852;52.190;4.422;2023-07-13T14:52:19;22.69;61.08
68943;DHT22;60852;52.190;4.422;2023-07-13T14:54:45;22.69;61.59
68943;DHT22;60852;52.190;4.422;2023-07-13T14:57:16;22.75;61.62
68943;DHT22;60852;52.190;4.422;2023-07-13T14:59:44;22.75;61.41
68943;DHT22;60852;52.190;4.422;2023-07-13T15:02:33;22.79;61.08
68943;DHT22;60852;52.190;4.422;2023-07-13T15:04:59;22.71;60.52
68943;DHT22;60852;52.190;4.422;2023-07-13T15:07:25;22.65;61.21
68943;DHT22;60852;52.190;4.422;2023-07-13T15:09:51;22.72;61.24
68943;DHT22;60852;52.190;4.422;2023-07-13T15:12:17;22.71;60.93
68943;DHT22;60852;52.190;4.422;2023-07-13T15:14:43;22.51;61.86
68943;DHT22;60852;52.190;4.422;2023-07-13T15:17:27;22.58;62.32
68943;DHT22;60852;52.190;4.422;2023-07-13T15:19:55;22.65;62.19
68943;DHT22;60852;52.190;4.422;2023-07-13T15:22:21;22.65;61.98
68943;DHT22;60852;52.190;4.422;2023-07-13T15:24:47;22.68;61.16
68943;DHT22;60852;52.190;4.422;2023-07-13T15:27:12;22.85;60.17
68943;DHT22;60852;52.190;4.422;2023-07-13T15:29:38;22.78;59.93
68943;DHT22;60852;52.190;4.422;2023-07-13T15:32:13;22.74;60.45
68943;DHT22;60852;52.190;4.422;2023-07-13T15:34:39;22.75;60.67
68943;DHT22;60852;52.190;4.422;2023-07-13T15:37:14;22.75;60.70
68943;DHT22;60852;52.190;4.422;2023-07-13T15:39:40;22.82;60.70
68943;DHT22;60852;52.190;4.422;2023-07-13T15:42:14;22.71;60.80
68943;DHT22;60852;52.190;4.422;2023-07-13T15:44:40;22.68;61.52
68943;DHT22;60852;52.190;4.422;2023-07-13T15:47:14;22.72;60.65
68943;DHT22;60852;52.190;4.422;2023-07-13T15:49:41;22.82;61.43
68943;DHT22;60852;52.190;4.422;2023-07-13T15:52:21;22.92;60.99
68943;DHT22;60852;52.190;4.422;2023-07-13T15:54:49;22.57;61.86
68943;DHT22;60852;52.190;4.422;2023-07-13T15:57:17;22.58;62.68
68943;DHT22;60852;52.190;4.422;2023-07-13T15:59:43;22.64;61.84
68943;DHT22;60852;52.190;4.422;2023-07-13T16:02:14;22.61;61.72
68943;DHT22;60852;52.190;4.422;2023-07-13T16:04:41;22.64;62.49
68943;DHT22;60852;52.190;4.422;2023-07-13T16:07:10;22.65;62.38
68943;DHT22;60852;52.190;4.422;2023-07-13T16:09:37;22.65;62.87
68943;DHT22;60852;52.190;4.422;2023-07-13T16:12:12;22.60;63.12
68943;DHT22;60852;52.190;4.422;2023-07-13T16:14:39;22.43;63.79
68943;DHT22;60852;52.190;4.422;2023-07-13T16:17:05;22.17;65.30